createdAt,value
2022-08-03T00:00:53.922Z,36.83
2022-08-03T00:02:00.280Z,36.77
2022-08-03T00:03:07.057Z,36.74
2022-08-03T00:04:15.861Z,36.86
2022-08-03T00:05:22.175Z,37.04
2022-08-03T00:06:31.669Z,37.09
2022-08-03T00:07:43.637Z,37.13
2022-08-03T00:08:51.582Z,37.30
2022-08-03T00:09:58.437Z,37.38
2022-08-03T00:11:05.349Z,37.36
2022-08-03T00:12:14.575Z,37.33
2022-08-03T00:13:22.089Z,37.37
2022-08-03T00:14:31.473Z,37.51
2022-08-03T00:15:39.796Z,37.40
2022-08-03T00:16:48.021Z,37.17
2022-08-03T00:17:54.866Z,36.64
2022-08-03T00:19:01.339Z,36.33
2022-08-03T00:20:09.039Z,36.28
2022-08-03T00:21:18.131Z,36.50
2022-08-03T00:22:23.951Z,36.53
2022-08-03T00:23:52.200Z,36.28
2022-08-03T00:25:01.225Z,36.37
2022-08-03T00:26:10.186Z,36.65
2022-08-03T00:27:21.023Z,36.54
2022-08-03T00:28:32.151Z,36.50
2022-08-03T00:29:59.816Z,36.48
2022-08-03T00:31:13.727Z,36.38
2022-08-03T00:32:21.616Z,36.51
2022-08-03T00:33:31.766Z,36.42
2022-08-03T00:35:08.291Z,36.34
2022-08-03T00:36:18.940Z,36.22
2022-08-03T00:37:41.356Z,35.99
2022-08-03T00:38:51.025Z,35.86
2022-08-03T00:39:57.152Z,35.55
2022-08-03T00:41:07.562Z,35.52
2022-08-03T00:42:15.893Z,35.43
2022-08-03T00:43:25.869Z,35.13
2022-08-03T00:44:33.670Z,35.20
2022-08-03T00:45:41.807Z,35.07
2022-08-03T00:46:47.997Z,34.88
2022-08-03T00:47:54.593Z,34.97
2022-08-03T00:49:01.738Z,35.02
2022-08-03T00:50:08.211Z,35.09
2022-08-03T00:51:18.180Z,35.23
2022-08-03T00:52:26.826Z,35.25
2022-08-03T00:53:34.935Z,35.12
2022-08-03T00:54:45.714Z,34.91
2022-08-03T00:55:52.583Z,34.98
2022-08-03T00:57:01.839Z,34.97
2022-08-03T00:58:11.639Z,35.11
2022-08-03T00:59:21.136Z,34.82
2022-08-03T01:00:32.096Z,34.62
2022-08-03T01:01:39.554Z,34.40
2022-08-03T01:02:47.407Z,34.32
2022-08-03T01:03:54.975Z,34.20
2022-08-03T01:05:04.607Z,34.15
2022-08-03T01:06:28.895Z,34.07
2022-08-03T01:07:47.158Z,34.11
2022-08-03T01:09:36.236Z,33.85
2022-08-03T01:11:09.274Z,33.73
2022-08-03T01:12:50.354Z,33.74
2022-08-03T01:14:26.685Z,33.72
2022-08-03T01:15:55.110Z,33.71
2022-08-03T01:17:22.132Z,33.63
2022-08-03T01:18:58.183Z,33.70
2022-08-03T01:20:15.107Z,33.54
2022-08-03T01:21:35.792Z,33.43
2022-08-03T01:23:29.033Z,33.34
2022-08-03T01:25:10.206Z,33.22
2022-08-03T01:26:37.637Z,33.10
2022-08-03T01:28:11.769Z,33.08
2022-08-03T01:29:51.586Z,33.11
2022-08-03T01:31:03.449Z,32.85
2022-08-03T01:33:00.876Z,32.83
2022-08-03T01:33:50.091Z,32.79
2022-08-03T01:35:17.581Z,32.68
2022-08-03T01:36:36.619Z,32.58
2022-08-03T01:37:52.768Z,32.36
2022-08-03T01:39:02.468Z,32.40
2022-08-03T01:40:10.320Z,32.33
2022-08-03T01:41:21.557Z,32.40
2022-08-03T01:42:29.465Z,32.17
2022-08-03T01:44:26.791Z,32.09
2022-08-03T01:45:08.037Z,32.08
2022-08-03T01:46:14.948Z,32.18
2022-08-03T01:47:23.343Z,32.14
2022-08-03T01:48:32.918Z,32.05
2022-08-03T01:49:45.952Z,32.04
2022-08-03T01:50:55.408Z,32.12
2022-08-03T01:52:05.064Z,32.23
2022-08-03T01:53:17.818Z,32.33
2022-08-03T01:54:24.640Z,32.30
2022-08-03T01:55:30.977Z,32.18
2022-08-03T01:56:37.035Z,32.20
2022-08-03T01:58:05.819Z,32.30
2022-08-03T01:59:16.674Z,32.10
2022-08-03T02:00:26.725Z,31.95
2022-08-03T02:02:15.964Z,31.88
2022-08-03T02:03:07.374Z,31.94
2022-08-03T02:04:16.685Z,31.78
2022-08-03T02:05:23.154Z,31.62
2022-08-03T02:06:55.626Z,31.57
2022-08-03T02:07:59.166Z,31.47
2022-08-03T02:09:07.330Z,31.39
2022-08-03T02:10:14.140Z,31.34
2022-08-03T02:11:20.516Z,31.19
2022-08-03T02:12:27.783Z,31.14
2022-08-03T02:13:36.112Z,30.98
2022-08-03T02:14:45.920Z,30.69
2022-08-03T02:15:53.762Z,30.61
2022-08-03T02:17:03.339Z,30.53
2022-08-03T02:18:11.777Z,30.41
2022-08-03T02:19:19.728Z,30.43
2022-08-03T02:20:28.848Z,30.39
2022-08-03T02:21:57.005Z,30.28
2022-08-03T02:23:05.963Z,30.21
2022-08-03T02:24:13.237Z,30.06
2022-08-03T02:25:20.594Z,29.92
2022-08-03T02:26:30.092Z,29.76
2022-08-03T02:27:54.341Z,29.61
2022-08-03T02:29:17.664Z,29.44
2022-08-03T02:30:27.536Z,29.41
2022-08-03T02:31:37.194Z,29.36
2022-08-03T02:32:53.689Z,29.30
2022-08-03T02:34:04.509Z,29.22
2022-08-03T02:35:14.251Z,29.12
2022-08-03T02:36:25.849Z,28.99
2022-08-03T02:37:36.434Z,28.88
2022-08-03T02:38:44.309Z,28.76
2022-08-03T02:39:50.238Z,28.68
2022-08-03T02:40:58.611Z,28.57
2022-08-03T02:42:06.649Z,28.47
2022-08-03T02:43:13.796Z,28.39
2022-08-03T02:44:25.023Z,28.34
2022-08-03T02:45:32.464Z,28.25
2022-08-03T02:46:46.065Z,28.17
2022-08-03T02:47:54.980Z,28.11
2022-08-03T02:49:40.478Z,28.06
2022-08-03T02:50:32.453Z,27.99
2022-08-03T02:51:40.442Z,27.94
2022-08-03T02:52:47.500Z,27.91
2022-08-03T02:53:54.858Z,27.87
2022-08-03T02:55:02.755Z,27.83
2022-08-03T02:56:09.798Z,27.77
2022-08-03T02:57:17.669Z,27.73
2022-08-03T02:58:24.820Z,27.68
2022-08-03T02:59:32.067Z,27.64
2022-08-03T03:00:37.698Z,27.60
2022-08-03T03:01:44.614Z,27.56
2022-08-03T03:02:53.789Z,27.52
2022-08-03T03:04:01.690Z,27.49
2022-08-03T03:05:53.222Z,27.46
2022-08-03T03:06:43.512Z,27.38
2022-08-03T03:07:58.249Z,27.33
2022-08-03T03:09:06.015Z,27.30
2022-08-03T03:10:15.012Z,27.26
2022-08-03T03:11:26.846Z,27.21
2022-08-03T03:12:35.961Z,27.17
2022-08-03T03:13:45.604Z,27.13
2022-08-03T03:14:56.508Z,27.10
2022-08-03T03:16:07.733Z,27.06
2022-08-03T03:17:14.930Z,27.03
2022-08-03T03:18:23.001Z,27.00
2022-08-03T03:19:30.548Z,26.98
2022-08-03T03:20:38.692Z,26.96
2022-08-03T03:21:46.663Z,26.94
2022-08-03T03:22:53.986Z,26.91
2022-08-03T03:24:02.390Z,26.88
2022-08-03T03:25:10.385Z,26.86
2022-08-03T03:26:17.637Z,26.83
2022-08-03T03:27:26.403Z,26.81
2022-08-03T03:28:35.351Z,26.79
2022-08-03T03:29:43.260Z,26.77
2022-08-03T03:30:52.715Z,26.75
2022-08-03T03:32:00.772Z,26.73
2022-08-03T03:33:10.066Z,26.72
2022-08-03T03:34:18.268Z,26.70
2022-08-03T03:35:29.391Z,26.68
2022-08-03T03:36:37.046Z,26.66
2022-08-03T03:37:44.540Z,26.64
2022-08-03T03:38:51.602Z,26.62
2022-08-03T03:40:00.784Z,26.59
2022-08-03T03:41:09.449Z,26.56
2022-08-03T03:42:16.168Z,26.53
2022-08-03T03:43:26.704Z,26.50
2022-08-03T03:44:35.507Z,26.48
2022-08-03T03:45:43.898Z,26.45
2022-08-03T03:46:52.091Z,26.43
2022-08-03T03:48:00.564Z,26.42
2022-08-03T03:49:11.356Z,26.40
2022-08-03T03:50:20.345Z,26.38
2022-08-03T03:51:26.917Z,26.36
2022-08-03T03:52:34.998Z,26.34
2022-08-03T03:53:43.593Z,26.32
2022-08-03T03:54:51.331Z,26.30
2022-08-03T03:56:02.652Z,26.29
2022-08-03T03:57:09.143Z,26.27
2022-08-03T03:58:22.144Z,26.24
2022-08-03T03:59:35.317Z,26.22
2022-08-03T04:00:45.572Z,26.20
2022-08-03T04:01:59.226Z,26.18
2022-08-03T04:03:06.906Z,26.14
2022-08-03T04:04:37.950Z,26.12
2022-08-03T04:06:07.856Z,26.09
2022-08-03T04:07:36.235Z,26.06
2022-08-03T04:09:03.201Z,26.04
2022-08-03T04:10:53.224Z,26.01
2022-08-03T04:12:00.411Z,25.97
2022-08-03T04:13:11.201Z,25.94
2022-08-03T04:14:47.951Z,25.92
2022-08-03T04:15:54.209Z,25.89
2022-08-03T04:17:09.172Z,25.88
2022-08-03T04:18:16.279Z,25.86
2022-08-03T04:19:47.209Z,25.84
2022-08-03T04:20:54.144Z,25.81
2022-08-03T04:22:08.384Z,25.79
2022-08-03T04:23:18.760Z,25.78
2022-08-03T04:24:26.727Z,25.77
2022-08-03T04:25:36.084Z,25.77
2022-08-03T04:26:47.535Z,25.76
2022-08-03T04:28:30.028Z,25.75
2022-08-03T04:29:28.156Z,25.74
2022-08-03T04:30:38.091Z,25.73
2022-08-03T04:31:45.042Z,25.71
2022-08-03T04:32:53.033Z,25.71
2022-08-03T04:34:01.327Z,25.71
2022-08-03T04:35:08.478Z,25.70
2022-08-03T04:36:17.594Z,25.70
2022-08-03T04:37:41.721Z,25.69
2022-08-03T04:39:09.994Z,25.65
2022-08-03T04:40:36.101Z,25.64
2022-08-03T04:42:07.569Z,25.63
2022-08-03T04:43:13.875Z,25.61
2022-08-03T04:44:28.257Z,25.60
2022-08-03T04:45:42.181Z,25.57
2022-08-03T04:46:52.513Z,25.56
2022-08-03T04:48:02.870Z,25.56
2022-08-03T04:49:10.050Z,25.55
2022-08-03T04:50:21.641Z,25.54
2022-08-03T04:51:45.663Z,25.53
2022-08-03T04:52:53.654Z,25.52
2022-08-03T04:54:01.778Z,25.52
2022-08-03T04:55:11.047Z,25.51
2022-08-03T04:56:17.853Z,25.50
2022-08-03T04:57:28.672Z,25.49
2022-08-03T04:58:35.956Z,25.48
2022-08-03T04:59:42.927Z,25.48
2022-08-03T05:00:52.601Z,25.47
2022-08-03T05:02:02.263Z,25.45
2022-08-03T05:03:20.188Z,25.43
2022-08-03T05:04:32.651Z,25.41
2022-08-03T05:05:50.644Z,25.39
2022-08-03T05:06:59.391Z,25.38
2022-08-03T05:08:28.118Z,25.36
2022-08-03T05:09:50.588Z,25.34
2022-08-03T05:11:01.312Z,25.32
2022-08-03T05:12:09.308Z,25.31
2022-08-03T05:13:16.871Z,25.31
2022-08-03T05:14:28.095Z,25.29
2022-08-03T05:15:36.790Z,25.28
2022-08-03T05:16:51.486Z,25.25
2022-08-03T05:17:58.252Z,25.23
2022-08-03T05:19:06.038Z,25.21
2022-08-03T05:20:19.060Z,25.19
2022-08-03T05:21:50.324Z,25.18
2022-08-03T05:22:55.325Z,25.14
2022-08-03T05:24:05.080Z,25.11
2022-08-03T05:25:17.447Z,25.09
2022-08-03T05:26:28.583Z,25.07
2022-08-03T05:27:35.807Z,25.05
2022-08-03T05:28:50.863Z,25.03
2022-08-03T05:30:30.810Z,25.01
2022-08-03T05:31:30.253Z,25.00
2022-08-03T05:32:37.153Z,24.99
2022-08-03T05:33:45.948Z,24.98
2022-08-03T05:34:54.253Z,24.97
2022-08-03T05:36:04.428Z,24.95
2022-08-03T05:37:11.060Z,24.93
2022-08-03T05:38:28.170Z,24.91
2022-08-03T05:39:44.530Z,24.87
2022-08-03T05:40:57.631Z,24.83
2022-08-03T05:42:22.048Z,24.76
2022-08-03T05:43:28.767Z,24.70
2022-08-03T05:44:40.448Z,24.65
2022-08-03T05:46:12.539Z,24.58
2022-08-03T05:47:19.822Z,24.51
2022-08-03T05:48:29.597Z,24.46
2022-08-03T05:49:36.749Z,24.42
2022-08-03T05:50:45.825Z,24.38
2022-08-03T05:51:59.813Z,24.34
2022-08-03T05:53:17.347Z,24.29
2022-08-03T05:54:24.183Z,24.26
2022-08-03T05:55:56.112Z,24.23
2022-08-03T05:57:07.173Z,24.21
2022-08-03T05:58:16.123Z,24.19
2022-08-03T05:59:38.235Z,24.17
2022-08-03T06:00:47.389Z,24.15
2022-08-03T06:01:57.657Z,24.11
2022-08-03T06:03:04.522Z,24.09
2022-08-03T06:04:13.268Z,24.07
2022-08-03T06:05:20.132Z,24.06
2022-08-03T06:06:32.334Z,24.03
2022-08-03T06:07:43.077Z,24.01
2022-08-03T06:08:50.101Z,23.98
2022-08-03T06:10:36.826Z,23.95
2022-08-03T06:11:28.097Z,23.92
2022-08-03T06:12:37.444Z,23.89
2022-08-03T06:13:45.925Z,23.86
2022-08-03T06:14:55.748Z,23.84
2022-08-03T06:16:02.905Z,23.81
2022-08-03T06:17:09.873Z,23.79
2022-08-03T06:18:21.597Z,23.76
2022-08-03T06:19:28.523Z,23.73
2022-08-03T06:20:37.283Z,23.71
2022-08-03T06:21:45.374Z,23.69
2022-08-03T06:23:00.464Z,23.66
2022-08-03T06:24:11.927Z,23.63
2022-08-03T06:25:21.365Z,23.60
2022-08-03T06:26:29.710Z,23.58
2022-08-03T06:27:41.262Z,23.55
2022-08-03T06:28:53.329Z,23.53
2022-08-03T06:30:02.076Z,23.51
2022-08-03T06:31:08.267Z,23.49
2022-08-03T06:32:15.915Z,23.48
2022-08-03T06:34:30.402Z,23.46
2022-08-03T06:34:56.702Z,23.44
2022-08-03T06:36:05.581Z,23.40
2022-08-03T06:37:13.706Z,23.36
2022-08-03T06:38:23.036Z,23.32
2022-08-03T06:39:29.648Z,23.28
2022-08-03T06:40:42.646Z,23.23
2022-08-03T06:41:49.710Z,23.21
2022-08-03T06:43:01.445Z,23.18
2022-08-03T06:44:08.412Z,23.16
2022-08-03T06:45:17.556Z,23.14
2022-08-03T06:46:26.634Z,23.12
2022-08-03T06:47:33.050Z,23.10
2022-08-03T06:48:42.093Z,23.09
2022-08-03T06:50:12.829Z,23.09
2022-08-03T06:51:16.160Z,23.07
2022-08-03T06:52:37.491Z,23.05
2022-08-03T06:53:45.326Z,23.03
2022-08-03T06:54:52.402Z,23.00
2022-08-03T06:55:59.079Z,22.98
2022-08-03T06:57:07.207Z,22.96
2022-08-03T06:58:14.377Z,22.94
2022-08-03T07:00:08.896Z,22.92
2022-08-03T07:00:49.960Z,22.90
2022-08-03T07:01:56.899Z,22.88
2022-08-03T07:03:03.671Z,22.88
2022-08-03T07:04:13.359Z,22.87
2022-08-03T07:05:20.179Z,22.85
2022-08-03T07:06:30.009Z,22.85
2022-08-03T07:07:37.792Z,22.84
2022-08-03T07:08:51.829Z,22.83
2022-08-03T07:10:02.309Z,22.81
2022-08-03T07:11:08.647Z,22.80
2022-08-03T07:12:17.186Z,22.77
2022-08-03T07:13:25.466Z,22.75
2022-08-03T07:14:31.705Z,22.73
2022-08-03T07:15:55.033Z,22.72
2022-08-03T07:17:04.543Z,22.69
2022-08-03T07:18:11.496Z,22.67
2022-08-03T07:19:18.482Z,22.64
2022-08-03T07:20:27.940Z,22.63
2022-08-03T07:21:40.451Z,22.62
2022-08-03T07:22:48.570Z,22.61
2022-08-03T07:23:55.681Z,22.60
2022-08-03T07:25:03.396Z,22.60
2022-08-03T07:26:09.458Z,22.59
2022-08-03T07:27:15.122Z,22.57
2022-08-03T07:28:21.705Z,22.56
2022-08-03T07:29:29.837Z,22.54
2022-08-03T07:30:42.897Z,22.55
2022-08-03T07:31:50.330Z,22.56
2022-08-03T07:32:59.252Z,22.56
2022-08-03T07:34:06.028Z,22.56
2022-08-03T07:35:24.505Z,22.55
2022-08-03T07:36:36.123Z,22.53
2022-08-03T07:37:41.727Z,22.49
2022-08-03T07:39:16.650Z,22.44
2022-08-03T07:40:31.484Z,22.38
2022-08-03T07:41:38.840Z,22.35
2022-08-03T07:42:52.140Z,22.33
2022-08-03T07:43:59.790Z,22.33
2022-08-03T07:45:16.884Z,22.33
2022-08-03T07:46:28.012Z,22.34
2022-08-03T07:47:36.108Z,22.35
2022-08-03T07:48:42.485Z,22.34
2022-08-03T07:49:48.432Z,22.34
2022-08-03T07:50:57.116Z,22.33
2022-08-03T07:52:23.059Z,22.33
2022-08-03T07:53:34.827Z,22.33
2022-08-03T07:54:52.014Z,22.32
2022-08-03T07:55:57.701Z,22.32
2022-08-03T07:57:04.050Z,22.34
2022-08-03T07:58:12.757Z,22.35
2022-08-03T07:59:19.846Z,22.37
2022-08-03T08:00:27.353Z,22.38
2022-08-03T08:01:36.398Z,22.38
2022-08-03T08:02:43.827Z,22.38
2022-08-03T08:03:52.578Z,22.38
2022-08-03T08:05:04.951Z,22.37
2022-08-03T08:06:12.130Z,22.37
2022-08-03T08:07:18.149Z,22.37
2022-08-03T08:08:29.429Z,22.35
2022-08-03T08:09:35.789Z,22.32
2022-08-03T08:10:41.855Z,22.29
2022-08-03T08:12:06.590Z,22.25
2022-08-03T08:13:24.740Z,22.21
2022-08-03T08:14:31.911Z,22.17
2022-08-03T08:15:43.675Z,22.12
2022-08-03T08:16:57.161Z,22.08
2022-08-03T08:18:03.648Z,22.05
2022-08-03T08:19:11.558Z,22.02
2022-08-03T08:20:25.179Z,22.00
2022-08-03T08:21:53.822Z,21.98
2022-08-03T08:23:09.653Z,21.94
2022-08-03T08:24:34.412Z,21.90
2022-08-03T08:25:41.295Z,21.88
2022-08-03T08:26:48.850Z,21.86
2022-08-03T08:28:29.190Z,21.84
2022-08-03T08:29:25.005Z,21.83
2022-08-03T08:30:34.139Z,21.82
2022-08-03T08:31:42.992Z,21.80
2022-08-03T08:32:52.096Z,21.78
2022-08-03T08:34:04.134Z,21.75
2022-08-03T08:35:12.993Z,21.71
2022-08-03T08:36:19.748Z,21.69
2022-08-03T08:37:26.840Z,21.68
2022-08-03T08:38:34.151Z,21.67
2022-08-03T08:39:41.960Z,21.65
2022-08-03T08:40:51.278Z,21.65
2022-08-03T08:41:57.783Z,21.64
2022-08-03T08:43:04.927Z,21.64
2022-08-03T08:44:10.805Z,21.64
2022-08-03T08:45:19.960Z,21.62
2022-08-03T08:46:25.778Z,21.61
2022-08-03T08:47:32.260Z,21.60
2022-08-03T08:48:59.592Z,21.58
2022-08-03T08:50:27.198Z,21.57
2022-08-03T08:51:54.396Z,21.57
2022-08-03T08:53:06.168Z,21.56
2022-08-03T08:54:18.933Z,21.56
2022-08-03T08:55:27.681Z,21.56
2022-08-03T08:56:34.900Z,21.54
2022-08-03T08:57:59.895Z,21.54
2022-08-03T08:59:05.904Z,21.52
2022-08-03T09:00:15.247Z,21.51
2022-08-03T09:01:23.089Z,21.49
2022-08-03T09:02:32.429Z,21.47
2022-08-03T09:03:42.274Z,21.45
2022-08-03T09:04:49.342Z,21.44
2022-08-03T09:05:56.430Z,21.41
2022-08-03T09:07:29.181Z,21.39
2022-08-03T09:08:33.400Z,21.38
2022-08-03T09:10:11.332Z,21.36
2022-08-03T09:11:12.023Z,21.35
2022-08-03T09:12:39.175Z,21.33
2022-08-03T09:13:47.931Z,21.32
2022-08-03T09:15:15.783Z,21.32
2022-08-03T09:16:23.938Z,21.32
2022-08-03T09:17:42.166Z,21.34
2022-08-03T09:18:54.113Z,21.35
2022-08-03T09:20:09.846Z,21.36
2022-08-03T09:21:32.579Z,21.35
2022-08-03T09:23:01.379Z,21.33
2022-08-03T09:24:16.484Z,21.30
2022-08-03T09:25:37.301Z,21.29
2022-08-03T09:26:53.592Z,21.28
2022-08-03T09:28:10.856Z,21.27
2022-08-03T09:29:21.282Z,21.27
2022-08-03T09:30:34.144Z,21.26
2022-08-03T09:31:46.856Z,21.26
2022-08-03T09:32:52.884Z,21.25
2022-08-03T09:34:01.760Z,21.24
2022-08-03T09:35:10.917Z,21.24
2022-08-03T09:36:41.843Z,21.23
2022-08-03T09:38:12.525Z,21.22
2022-08-03T09:39:37.551Z,21.21
2022-08-03T09:40:59.548Z,21.19
2022-08-03T09:42:08.949Z,21.20
2022-08-03T09:43:14.843Z,21.20
2022-08-03T09:44:25.221Z,21.22
2022-08-03T09:45:32.690Z,21.24
2022-08-03T09:46:52.705Z,21.25
2022-08-03T09:48:00.333Z,21.25
2022-08-03T09:49:13.404Z,21.25
2022-08-03T09:50:20.234Z,21.26
2022-08-03T09:51:32.891Z,21.26
2022-08-03T09:53:02.657Z,21.26
2022-08-03T09:54:17.555Z,21.25
2022-08-03T09:56:35.118Z,21.25
2022-08-03T09:56:59.049Z,21.24
2022-08-03T09:58:09.708Z,21.23
2022-08-03T09:59:24.598Z,21.23
2022-08-03T10:00:32.100Z,21.22
2022-08-03T10:01:42.203Z,21.23
2022-08-03T10:02:51.526Z,21.22
2022-08-03T10:04:03.999Z,21.20
2022-08-03T10:05:19.460Z,21.18
2022-08-03T10:06:29.292Z,21.17
2022-08-03T10:07:54.261Z,21.15
2022-08-03T10:09:12.320Z,21.14
2022-08-03T10:10:28.871Z,21.15
2022-08-03T10:11:42.116Z,21.16
2022-08-03T10:12:51.175Z,21.18
2022-08-03T10:14:01.358Z,21.20
2022-08-03T10:16:20.238Z,21.22
2022-08-03T10:16:41.280Z,21.24
2022-08-03T10:17:50.452Z,21.27
2022-08-03T10:18:58.805Z,21.28
2022-08-03T10:20:12.302Z,21.28
2022-08-03T10:21:19.362Z,21.28
2022-08-03T10:22:29.737Z,21.27
2022-08-03T10:23:40.900Z,21.26
2022-08-03T10:25:09.897Z,21.25
2022-08-03T10:26:18.609Z,21.23
2022-08-03T10:27:28.657Z,21.23
2022-08-03T10:28:45.246Z,21.23
2022-08-03T10:30:01.217Z,21.22
2022-08-03T10:31:11.837Z,21.22
2022-08-03T10:32:30.121Z,21.22
2022-08-03T10:33:51.613Z,21.22
2022-08-03T10:35:19.081Z,21.23
2022-08-03T10:36:36.272Z,21.24
2022-08-03T10:37:56.517Z,21.25
2022-08-03T10:39:04.690Z,21.25
2022-08-03T10:40:47.659Z,21.25
2022-08-03T10:41:55.147Z,21.26
2022-08-03T10:43:13.740Z,21.26
2022-08-03T10:44:26.181Z,21.27
2022-08-03T10:45:32.204Z,21.27
2022-08-03T10:46:44.664Z,21.27
2022-08-03T10:47:53.601Z,21.28
2022-08-03T10:48:59.728Z,21.28
2022-08-03T10:50:06.102Z,21.28
2022-08-03T10:51:12.472Z,21.27
2022-08-03T10:52:31.778Z,21.27
2022-08-03T10:53:54.625Z,21.26
2022-08-03T10:55:22.704Z,21.26
2022-08-03T10:56:55.687Z,21.26
2022-08-03T10:58:02.189Z,21.26
2022-08-03T10:59:09.025Z,21.27
2022-08-03T11:00:23.472Z,21.27
2022-08-03T11:02:01.835Z,21.27
2022-08-03T11:03:10.934Z,21.25
2022-08-03T11:04:20.517Z,21.24
2022-08-03T11:05:31.306Z,21.23
2022-08-03T11:06:38.254Z,21.21
2022-08-03T11:07:47.267Z,21.21
2022-08-03T11:09:18.500Z,21.20
2022-08-03T11:10:36.534Z,21.19
2022-08-03T11:11:44.818Z,21.18
2022-08-03T11:12:52.338Z,21.18
2022-08-03T11:14:12.843Z,21.18
2022-08-03T11:15:19.686Z,21.18
2022-08-03T11:16:25.719Z,21.19
2022-08-03T11:17:45.740Z,21.19
2022-08-03T11:19:03.885Z,21.19
2022-08-03T11:20:10.269Z,21.18
2022-08-03T11:21:16.930Z,21.18
2022-08-03T11:22:22.788Z,21.17
2022-08-03T11:24:03.010Z,21.18
2022-08-03T11:25:53.184Z,21.17
2022-08-03T11:26:43.917Z,21.16
2022-08-03T11:27:50.070Z,21.16
2022-08-03T11:29:23.038Z,21.15
2022-08-03T11:30:30.345Z,21.15
2022-08-03T11:31:52.047Z,21.15
2022-08-03T11:33:01.904Z,21.15
2022-08-03T11:34:15.096Z,21.14
2022-08-03T11:35:37.188Z,21.14
2022-08-03T11:37:20.883Z,21.13
2022-08-03T11:38:28.103Z,21.10
2022-08-03T11:39:46.955Z,21.08
2022-08-03T11:40:53.621Z,21.06
2022-08-03T11:41:59.153Z,21.04
2022-08-03T11:43:06.732Z,21.03
2022-08-03T11:44:28.110Z,21.02
2022-08-03T11:45:38.103Z,21.00
2022-08-03T11:46:48.472Z,20.98
2022-08-03T11:47:56.283Z,20.96
2022-08-03T11:49:10.412Z,20.94
2022-08-03T11:50:19.518Z,20.93
2022-08-03T11:51:32.375Z,20.91
2022-08-03T11:52:41.918Z,20.90
2022-08-03T11:53:51.164Z,20.90
2022-08-03T11:54:58.293Z,20.90
2022-08-03T11:56:04.409Z,20.89
2022-08-03T11:59:15.326Z,20.88
2022-08-03T11:59:20.154Z,20.86
2022-08-03T12:00:34.009Z,20.83
2022-08-03T12:01:41.990Z,20.81
2022-08-03T12:03:01.814Z,20.78
2022-08-03T12:04:07.741Z,20.76
2022-08-03T12:05:13.723Z,20.75
2022-08-03T12:06:20.232Z,20.74
2022-08-03T12:08:03.971Z,20.72
2022-08-03T12:08:56.932Z,20.70
2022-08-03T12:10:11.375Z,20.70
2022-08-03T12:11:17.740Z,20.69
2022-08-03T12:12:23.893Z,20.69
2022-08-03T12:14:44.309Z,20.70
2022-08-03T12:15:18.844Z,20.70
2022-08-03T12:16:26.557Z,20.71
2022-08-03T12:17:44.881Z,20.73
2022-08-03T12:19:17.146Z,20.74
2022-08-03T12:20:34.975Z,20.75
2022-08-03T12:21:57.153Z,20.74
2022-08-03T12:23:06.926Z,20.74
2022-08-03T12:24:13.865Z,20.73
2022-08-03T12:25:39.187Z,20.74
2022-08-03T12:26:58.289Z,20.74
2022-08-03T12:28:36.990Z,20.74
2022-08-03T12:29:58.761Z,20.75
2022-08-03T12:31:10.193Z,20.76
2022-08-03T12:32:17.597Z,20.76
2022-08-03T12:33:27.962Z,20.76
2022-08-03T12:34:52.405Z,20.76
2022-08-03T12:36:09.014Z,20.77
2022-08-03T12:37:21.847Z,20.78
2022-08-03T12:38:31.823Z,20.78
2022-08-03T12:40:02.648Z,20.78
2022-08-03T12:41:17.725Z,20.80
2022-08-03T12:42:23.761Z,20.81
2022-08-03T12:43:37.577Z,20.82
2022-08-03T12:44:54.684Z,20.84
2022-08-03T12:46:17.593Z,20.85
2022-08-03T12:47:24.106Z,20.86
2022-08-03T12:48:31.172Z,20.86
2022-08-03T12:49:55.555Z,20.87
2022-08-03T12:51:13.550Z,20.86
2022-08-03T12:52:19.937Z,20.86
2022-08-03T12:53:30.866Z,20.85
2022-08-03T12:54:37.042Z,20.85
2022-08-03T12:56:04.557Z,20.85
2022-08-03T12:57:16.221Z,20.84
2022-08-03T12:58:37.789Z,20.84
2022-08-03T12:59:53.314Z,20.83
2022-08-03T13:01:05.086Z,20.83
2022-08-03T13:02:19.904Z,20.81
2022-08-03T13:03:39.747Z,20.79
2022-08-03T13:04:51.461Z,20.77
2022-08-03T13:05:58.268Z,20.76
2022-08-03T13:07:04.577Z,20.75
2022-08-03T13:08:25.664Z,20.75
2022-08-03T13:09:35.855Z,20.74
2022-08-03T13:10:45.873Z,20.74
2022-08-03T13:12:13.709Z,20.74
2022-08-03T13:13:39.656Z,20.74
2022-08-03T13:14:49.569Z,20.73
2022-08-03T13:15:57.584Z,20.73
2022-08-03T13:17:04.166Z,20.72
2022-08-03T13:18:14.121Z,20.71
2022-08-03T13:19:24.648Z,20.70
2022-08-03T13:20:30.775Z,20.71
2022-08-03T13:21:37.803Z,20.72
2022-08-03T13:23:05.676Z,20.73
2022-08-03T13:24:20.383Z,20.74
2022-08-03T13:25:27.055Z,20.74
2022-08-03T13:26:33.529Z,20.75
2022-08-03T13:28:04.014Z,20.75
2022-08-03T13:29:09.329Z,20.76
2022-08-03T13:30:28.210Z,20.77
2022-08-03T13:31:38.666Z,20.77
2022-08-03T13:32:59.289Z,20.79
2022-08-03T13:34:04.710Z,20.83
2022-08-03T13:35:10.735Z,20.88
2022-08-03T13:36:20.614Z,20.92
2022-08-03T13:37:27.086Z,20.96
2022-08-03T13:38:33.526Z,21.02
2022-08-03T13:39:48.284Z,21.09
2022-08-03T13:41:05.276Z,21.19
2022-08-03T13:42:11.472Z,21.27
2022-08-03T13:43:19.181Z,21.34
2022-08-03T13:44:29.177Z,21.44
2022-08-03T13:45:37.328Z,21.57
2022-08-03T13:46:45.516Z,21.70
2022-08-03T13:47:53.283Z,21.87
2022-08-03T13:49:00.905Z,22.02
2022-08-03T13:50:07.167Z,22.11
2022-08-03T13:51:22.386Z,22.18
2022-08-03T13:52:35.778Z,22.25
2022-08-03T13:53:43.082Z,22.30
2022-08-03T13:54:50.831Z,22.36
2022-08-03T13:55:56.592Z,22.40
2022-08-03T13:58:02.918Z,22.46
2022-08-03T13:58:33.773Z,22.61
2022-08-03T13:59:40.630Z,22.82
2022-08-03T14:00:47.710Z,23.01
2022-08-03T14:01:55.835Z,23.23
2022-08-03T14:03:10.827Z,23.40
2022-08-03T14:04:22.604Z,23.57
2022-08-03T14:05:29.728Z,23.71
2022-08-03T14:06:41.110Z,23.87
2022-08-03T14:07:56.842Z,23.99
2022-08-03T14:09:11.456Z,24.01
2022-08-03T14:10:18.351Z,23.99
2022-08-03T14:11:24.409Z,23.95
2022-08-03T14:12:52.170Z,23.87
2022-08-03T14:14:00.584Z,23.78
2022-08-03T14:15:11.022Z,23.74
2022-08-03T14:16:17.875Z,23.71
2022-08-03T14:17:25.582Z,23.71
2022-08-03T14:18:34.080Z,23.69
2022-08-03T14:19:53.561Z,23.67
2022-08-03T14:21:05.951Z,23.70
2022-08-03T14:22:16.857Z,23.73
2022-08-03T14:23:23.376Z,23.81
2022-08-03T14:24:31.442Z,23.94
2022-08-03T14:25:43.639Z,24.11
2022-08-03T14:27:07.144Z,24.29
2022-08-03T14:28:16.486Z,24.49
2022-08-03T14:29:23.551Z,24.67
2022-08-03T14:30:32.820Z,24.84
2022-08-03T14:32:11.496Z,25.09
2022-08-03T14:33:08.024Z,25.44
2022-08-03T14:34:15.308Z,25.72
2022-08-03T14:35:22.998Z,25.98
2022-08-03T14:36:30.539Z,26.19
2022-08-03T14:37:37.117Z,26.32
2022-08-03T14:38:46.180Z,26.45
2022-08-03T14:39:59.940Z,26.63
2022-08-03T14:41:19.851Z,26.82
2022-08-03T14:42:27.824Z,26.99
2022-08-03T14:43:34.649Z,27.15
2022-08-03T14:44:43.023Z,27.35
2022-08-03T14:45:53.342Z,27.55
2022-08-03T14:47:00.236Z,27.75
2022-08-03T14:50:33.448Z,27.60
2022-08-03T14:50:34.122Z,27.75
2022-08-03T14:51:06.353Z,27.51
2022-08-03T14:52:12.019Z,27.45
2022-08-03T14:53:18.424Z,27.40
2022-08-03T14:54:24.605Z,27.41
2022-08-03T14:55:38.207Z,27.49
2022-08-03T14:56:48.485Z,27.54
2022-08-03T14:57:57.040Z,27.57
2022-08-03T14:59:05.192Z,27.60
2022-08-03T15:00:15.866Z,27.60
2022-08-03T15:02:02.633Z,27.63
2022-08-03T15:02:51.678Z,27.72
2022-08-03T15:03:58.980Z,27.90
2022-08-03T15:05:05.338Z,28.10
2022-08-03T15:06:12.326Z,28.24
2022-08-03T15:07:22.030Z,28.33
2022-08-03T15:08:29.371Z,28.38
2022-08-03T15:09:36.045Z,28.39
2022-08-03T15:10:45.263Z,28.39
2022-08-03T15:11:52.421Z,28.31
2022-08-03T15:13:00.964Z,28.20
2022-08-03T15:14:09.546Z,28.13
2022-08-03T15:15:16.815Z,28.06
2022-08-03T15:16:24.862Z,28.08
2022-08-03T15:17:36.972Z,28.17
2022-08-03T15:18:44.937Z,28.27
2022-08-03T15:20:02.416Z,28.27
2022-08-03T15:21:46.096Z,28.20
2022-08-03T15:22:49.342Z,28.10
2022-08-03T15:23:56.790Z,28.08
2022-08-03T15:26:28.551Z,28.21
2022-08-03T15:26:41.595Z,28.40
2022-08-03T15:28:04.139Z,28.60
2022-08-03T15:30:05.333Z,28.87
2022-08-03T15:30:41.665Z,29.05
2022-08-03T15:31:48.792Z,29.12
2022-08-03T15:32:58.501Z,29.25
2022-08-03T15:34:05.541Z,29.44
2022-08-03T15:35:12.865Z,29.61
2022-08-03T15:36:19.935Z,29.80
2022-08-03T15:37:28.690Z,30.00
2022-08-03T15:38:36.344Z,30.20